createdAt,value
2023-04-26T00:00:09.509Z,0.28
2023-04-26T00:01:09.272Z,0.34
2023-04-26T00:02:09.271Z,0.30
2023-04-26T00:03:09.367Z,0.29
2023-04-26T00:04:09.546Z,0.37
2023-04-26T00:05:09.653Z,0.39
2023-04-26T00:06:09.305Z,0.20
2023-04-26T00:07:09.316Z,0.34
2023-04-26T00:08:09.319Z,0.41
2023-04-26T00:09:09.349Z,0.35
2023-04-26T00:10:09.339Z,0.28
2023-04-26T00:11:09.353Z,0.33
2023-04-26T00:12:09.354Z,0.37
2023-04-26T00:13:09.390Z,0.40
2023-04-26T00:14:09.461Z,0.17
2023-04-26T00:15:09.450Z,0.48
2023-04-26T00:16:09.515Z,0.34
2023-04-26T00:17:09.508Z,0.23
2023-04-26T00:18:09.597Z,0.56
2023-04-26T00:19:09.594Z,0.33
2023-04-26T00:20:09.620Z,0.31
2023-04-26T00:21:09.694Z,0.40
2023-04-26T00:22:09.707Z,0.50
2023-04-26T00:23:09.732Z,0.41
2023-04-26T00:24:09.758Z,0.42
2023-04-26T00:25:09.826Z,0.47
2023-04-26T00:26:09.831Z,0.29
2023-04-26T00:27:09.861Z,0.44
2023-04-26T00:29:28.708Z,0.22
2023-04-26T00:30:28.677Z,0.25
2023-04-26T00:31:28.563Z,0.40
2023-04-26T00:32:28.567Z,0.48
2023-04-26T00:33:28.796Z,0.22
2023-04-26T00:34:28.530Z,0.34
2023-04-26T00:35:28.506Z,0.29
2023-04-26T00:36:28.477Z,0.35
2023-04-26T00:37:29.264Z,0.22
2023-04-26T00:38:28.777Z,0.30
2023-04-26T00:39:28.516Z,0.25
2023-04-26T00:40:29.268Z,0.31
2023-04-26T00:41:28.578Z,0.38
2023-04-26T00:42:28.410Z,0.32
2023-04-26T00:43:28.360Z,0.38
2023-04-26T00:44:28.434Z,0.48
2023-04-26T00:45:28.439Z,0.30
2023-04-26T00:46:28.313Z,0.27
2023-04-26T00:47:28.284Z,0.36
2023-04-26T00:48:28.259Z,0.28
2023-04-26T00:49:28.252Z,0.37
2023-04-26T00:50:28.225Z,0.26
2023-04-26T00:51:28.225Z,0.13
2023-04-26T00:52:28.185Z,0.26
2023-04-26T00:53:28.191Z,0.27
2023-04-26T00:54:28.157Z,0.43
2023-04-26T00:55:28.157Z,0.19
2023-04-26T00:56:28.129Z,0.89
2023-04-26T00:57:28.094Z,0.43
2023-04-26T00:58:28.085Z,0.29
2023-04-26T00:59:28.183Z,0.19
2023-04-26T01:00:28.092Z,0.33
2023-04-26T01:01:28.096Z,0.38
2023-04-26T01:02:28.127Z,0.30
2023-04-26T01:03:28.116Z,0.39
2023-04-26T01:04:28.058Z,0.25
2023-04-26T01:05:27.984Z,0.38
2023-04-26T01:06:27.971Z,0.36
2023-04-26T01:07:27.973Z,0.31
2023-04-26T01:08:27.937Z,0.27
2023-04-26T01:09:27.913Z,0.25
2023-04-26T01:10:27.885Z,0.24
2023-04-26T01:11:27.879Z,0.31
2023-04-26T01:12:27.845Z,0.44
2023-04-26T01:13:27.825Z,0.29
2023-04-26T01:14:27.825Z,0.24
2023-04-26T01:15:27.796Z,0.35
2023-04-26T01:16:27.778Z,0.35
2023-04-26T01:17:27.828Z,0.27
2023-04-26T01:18:27.728Z,0.23
2023-04-26T01:19:27.711Z,0.32
2023-04-26T01:20:27.679Z,0.52
2023-04-26T01:21:27.655Z,0.32
2023-04-26T01:22:27.626Z,0.20
2023-04-26T01:23:27.625Z,0.28
2023-04-26T01:24:27.638Z,0.42
2023-04-26T01:25:27.657Z,0.30
2023-04-26T01:26:27.675Z,0.22
2023-04-26T01:27:27.707Z,0.21
2023-04-26T01:28:27.747Z,0.46
2023-04-26T01:29:27.745Z,0.19
2023-04-26T01:30:27.740Z,0.37
2023-04-26T01:31:27.792Z,0.23
2023-04-26T01:32:27.839Z,0.33
2023-04-26T01:33:27.753Z,0.19
2023-04-26T01:34:27.754Z,0.35
2023-04-26T01:35:27.730Z,0.27
2023-04-26T01:36:27.708Z,0.27
2023-04-26T01:37:27.656Z,0.35
2023-04-26T01:38:27.654Z,0.34
2023-04-26T01:39:27.622Z,0.26
2023-04-26T01:40:27.582Z,0.31
2023-04-26T01:41:27.594Z,0.15
2023-04-26T01:42:27.556Z,0.35
2023-04-26T01:43:27.516Z,0.26
2023-04-26T01:44:27.492Z,0.46
2023-04-26T01:45:27.475Z,0.26
2023-04-26T01:46:27.521Z,0.34
2023-04-26T01:47:27.484Z,0.19
2023-04-26T01:48:27.500Z,0.22
2023-04-26T01:49:27.543Z,0.26
2023-04-26T01:50:27.527Z,0.44
2023-04-26T01:51:27.529Z,0.22
2023-04-26T01:52:27.564Z,0.27
2023-04-26T01:53:27.573Z,0.31
2023-04-26T01:54:27.590Z,0.36
2023-04-26T01:55:27.603Z,0.45
2023-04-26T01:56:27.611Z,0.21
2023-04-26T01:57:27.645Z,0.22
2023-04-26T01:58:27.644Z,0.31
2023-04-26T01:59:27.680Z,0.32
2023-04-26T02:00:27.680Z,0.32
2023-04-26T02:01:27.715Z,0.40
2023-04-26T02:02:27.741Z,0.23
2023-04-26T02:03:27.728Z,0.37
2023-04-26T02:04:27.800Z,0.34
2023-04-26T02:05:27.861Z,0.33
2023-04-26T02:06:27.766Z,0.24
2023-04-26T02:07:27.805Z,0.28
2023-04-26T02:08:27.800Z,0.34
2023-04-26T02:09:27.831Z,0.28
2023-04-26T02:10:27.835Z,0.29
2023-04-26T02:11:27.878Z,0.31
2023-04-26T02:12:27.888Z,0.24
2023-04-26T02:13:27.904Z,0.22
2023-04-26T02:14:27.930Z,0.23
2023-04-26T02:15:27.940Z,0.31
2023-04-26T02:16:27.999Z,0.35
2023-04-26T02:17:27.957Z,0.30
2023-04-26T02:18:27.924Z,0.17
2023-04-26T02:19:27.887Z,0.33
2023-04-26T02:20:27.873Z,0.34
2023-04-26T02:21:27.853Z,0.17
2023-04-26T02:22:27.875Z,0.40
2023-04-26T02:23:27.825Z,0.37
2023-04-26T02:24:27.829Z,0.43
2023-04-26T02:25:27.793Z,0.24
2023-04-26T02:26:27.766Z,0.41
2023-04-26T02:27:27.776Z,0.25
2023-04-26T02:28:27.728Z,0.25
2023-04-26T02:29:43.171Z,0.44
2023-04-26T02:30:28.722Z,0.31
2023-04-26T02:31:27.744Z,0.48
2023-04-26T02:32:27.744Z,0.15
2023-04-26T02:33:27.706Z,0.42
2023-04-26T02:34:27.637Z,0.25
2023-04-26T02:35:28.297Z,0.25
2023-04-26T02:36:27.656Z,0.15
2023-04-26T02:37:27.666Z,0.21
2023-04-26T02:38:27.551Z,0.32
2023-04-26T02:39:27.535Z,0.30
2023-04-26T02:40:27.518Z,0.32
2023-04-26T02:41:27.505Z,0.32
2023-04-26T02:42:27.477Z,0.25
2023-04-26T02:43:27.453Z,0.21
2023-04-26T02:44:27.450Z,0.27
2023-04-26T02:45:27.459Z,0.27
2023-04-26T02:46:27.498Z,0.31
2023-04-26T02:47:27.521Z,0.25
2023-04-26T02:48:27.530Z,0.31
2023-04-26T02:49:27.531Z,0.30
2023-04-26T02:50:27.546Z,0.33
2023-04-26T02:51:27.564Z,0.46
2023-04-26T02:52:27.587Z,0.29
2023-04-26T02:53:27.598Z,0.36
2023-04-26T02:54:27.618Z,0.22
2023-04-26T02:55:27.645Z,0.31
2023-04-26T02:56:27.653Z,0.29
2023-04-26T02:57:27.671Z,0.22
2023-04-26T02:58:27.693Z,0.19
2023-04-26T02:59:27.726Z,0.33
2023-04-26T03:00:27.743Z,0.24
2023-04-26T03:01:27.774Z,0.31
2023-04-26T03:02:27.894Z,0.38
2023-04-26T03:03:28.017Z,0.21
2023-04-26T03:04:27.804Z,0.33
2023-04-26T03:05:27.830Z,0.31
2023-04-26T03:06:27.867Z,0.27
2023-04-26T03:07:27.860Z,0.53
2023-04-26T03:08:27.899Z,0.30
2023-04-26T03:09:27.973Z,0.41
2023-04-26T03:10:27.975Z,0.34
2023-04-26T03:11:27.957Z,0.49
2023-04-26T03:12:28.037Z,0.37
2023-04-26T03:13:28.044Z,0.38
2023-04-26T03:14:28.039Z,0.34
2023-04-26T03:15:28.065Z,0.36
2023-04-26T03:16:28.124Z,0.37
2023-04-26T03:17:28.140Z,0.45
2023-04-26T03:18:28.127Z,0.46
2023-04-26T03:19:28.152Z,0.41
2023-04-26T03:20:28.167Z,0.32
2023-04-26T03:21:28.188Z,0.35
2023-04-26T03:22:28.200Z,0.33
2023-04-26T03:23:28.232Z,0.50
2023-04-26T03:24:28.235Z,0.44
2023-04-26T03:25:28.410Z,0.94
2023-04-26T03:26:28.283Z,0.40
2023-04-26T03:27:28.313Z,0.39
2023-04-26T03:28:28.326Z,0.19
2023-04-26T03:29:28.358Z,0.33
2023-04-26T03:30:28.389Z,0.37
2023-04-26T03:31:28.453Z,0.27
2023-04-26T03:32:28.411Z,0.42
2023-04-26T03:33:28.448Z,0.31
2023-04-26T03:34:28.467Z,0.37
2023-04-26T03:35:28.496Z,0.33
2023-04-26T03:36:28.521Z,0.51
2023-04-26T03:37:28.599Z,0.29
2023-04-26T03:38:28.619Z,0.25
2023-04-26T03:39:28.694Z,0.39
2023-04-26T03:40:28.707Z,0.26
2023-04-26T03:41:28.609Z,0.36
2023-04-26T03:42:28.654Z,0.37
2023-04-26T03:43:29.324Z,0.33
2023-04-26T03:44:30.995Z,0.25
2023-04-26T03:45:28.868Z,0.48
2023-04-26T03:46:28.906Z,0.40
2023-04-26T03:47:28.904Z,0.50
2023-04-26T03:48:28.865Z,0.25
2023-04-26T03:49:28.888Z,0.30
2023-04-26T03:50:28.988Z,0.25
2023-04-26T03:51:28.964Z,0.40
2023-04-26T03:52:28.993Z,0.20
2023-04-26T03:53:29.002Z,0.25
2023-04-26T03:54:28.966Z,0.55
2023-04-26T03:55:29.009Z,0.47
2023-04-26T03:56:29.108Z,0.37
2023-04-26T03:57:29.078Z,0.37
2023-04-26T03:58:29.042Z,0.33
2023-04-26T03:59:29.070Z,0.44
2023-04-26T04:00:29.085Z,0.19
2023-04-26T04:01:29.118Z,0.28
2023-04-26T04:02:29.281Z,0.33
2023-04-26T04:03:29.348Z,0.39
2023-04-26T04:04:29.356Z,0.26
2023-04-26T04:05:29.249Z,0.46
2023-04-26T04:06:29.230Z,0.51
2023-04-26T04:07:29.389Z,0.37
2023-04-26T04:08:29.260Z,0.37
2023-04-26T04:09:29.298Z,0.37
2023-04-26T04:10:29.333Z,0.38
2023-04-26T04:11:29.345Z,0.48
2023-04-26T04:12:29.390Z,0.31
2023-04-26T04:13:29.438Z,0.22
2023-04-26T04:14:29.435Z,0.20
2023-04-26T04:15:29.488Z,0.28
2023-04-26T04:16:29.613Z,0.31
2023-04-26T04:17:29.536Z,0.47
2023-04-26T04:18:29.535Z,0.20
2023-04-26T04:19:29.577Z,0.30
2023-04-26T04:20:29.564Z,0.41
2023-04-26T04:21:29.569Z,0.38
2023-04-26T04:22:29.593Z,0.28
2023-04-26T04:23:29.562Z,0.34
2023-04-26T04:24:29.569Z,0.49
2023-04-26T04:25:29.582Z,0.27
2023-04-26T04:26:29.553Z,0.46
2023-04-26T04:27:29.549Z,0.31
2023-04-26T04:28:29.548Z,0.30
2023-04-26T04:29:29.556Z,0.26
2023-04-26T04:30:29.554Z,0.43
2023-04-26T04:31:29.593Z,0.27
2023-04-26T04:32:29.562Z,0.30
2023-04-26T04:33:29.597Z,0.35
2023-04-26T04:34:29.547Z,0.29
2023-04-26T04:35:29.541Z,0.45
2023-04-26T04:36:29.526Z,0.33
2023-04-26T04:37:29.571Z,0.26
2023-04-26T04:38:29.605Z,0.31
2023-04-26T04:39:29.636Z,0.47
2023-04-26T04:40:29.684Z,0.39
2023-04-26T04:41:29.709Z,0.37
2023-04-26T04:42:29.725Z,0.34
2023-04-26T04:43:29.782Z,0.30
2023-04-26T04:44:29.817Z,0.32
2023-04-26T04:45:29.833Z,0.29
2023-04-26T04:46:29.891Z,0.18
2023-04-26T04:47:29.907Z,0.51
2023-04-26T04:48:29.938Z,0.32
2023-04-26T04:49:29.992Z,0.27
2023-04-26T04:50:30.043Z,0.40
2023-04-26T04:51:30.092Z,0.42
2023-04-26T04:52:30.138Z,0.33
2023-04-26T04:53:30.178Z,0.49
2023-04-26T04:54:30.209Z,0.38
2023-04-26T04:55:30.256Z,0.31
2023-04-26T04:56:30.277Z,0.38
2023-04-26T04:57:30.330Z,0.21
2023-04-26T04:58:30.372Z,0.26
2023-04-26T04:59:30.442Z,0.40
2023-04-26T05:00:30.463Z,0.36
2023-04-26T05:01:30.516Z,0.36
2023-04-26T05:02:30.567Z,0.35
2023-04-26T05:03:30.660Z,0.35
2023-04-26T05:04:30.736Z,0.29
2023-04-26T05:05:30.660Z,0.41
2023-04-26T05:06:30.687Z,0.32
2023-04-26T05:07:30.739Z,0.31
2023-04-26T05:08:30.787Z,0.36
2023-04-26T05:09:30.818Z,0.44
2023-04-26T05:10:30.853Z,0.27
2023-04-26T05:11:30.885Z,0.43
2023-04-26T05:12:30.947Z,0.36
2023-04-26T05:13:31.011Z,0.49
2023-04-26T05:14:31.059Z,0.49
2023-04-26T05:15:31.164Z,0.50
2023-04-26T05:16:31.085Z,0.39
2023-04-26T05:17:31.121Z,0.58
2023-04-26T05:18:31.239Z,0.38
2023-04-26T05:19:31.180Z,0.44
2023-04-26T05:20:31.214Z,0.49
2023-04-26T05:21:31.178Z,0.46
2023-04-26T05:22:31.140Z,0.61
2023-04-26T05:23:31.142Z,0.63
2023-04-26T05:24:31.114Z,0.70
2023-04-26T05:25:31.145Z,0.54
2023-04-26T05:26:31.082Z,0.49
2023-04-26T05:27:31.082Z,0.47
2023-04-26T05:28:31.049Z,0.53
2023-04-26T05:29:31.136Z,0.35
2023-04-26T05:30:31.054Z,0.41
2023-04-26T05:31:31.090Z,0.64
2023-04-26T05:32:31.136Z,0.52
2023-04-26T05:33:31.163Z,0.52
2023-04-26T05:34:31.201Z,0.60
2023-04-26T05:35:31.238Z,2.47
2023-04-26T05:36:31.303Z,0.87
2023-04-26T05:37:31.307Z,0.95
2023-04-26T05:38:31.336Z,0.56
2023-04-26T05:39:31.384Z,0.76
2023-04-26T05:40:31.408Z,0.79
2023-04-26T05:41:31.440Z,0.76
2023-04-26T05:42:31.484Z,1.31
2023-04-26T05:43:31.483Z,1.04
2023-04-26T05:44:31.516Z,1.00
2023-04-26T05:45:31.606Z,0.96
2023-04-26T05:46:31.661Z,1.16
2023-04-26T05:47:31.587Z,0.89
2023-04-26T05:48:31.612Z,0.81
2023-04-26T05:49:31.635Z,0.88
2023-04-26T05:50:31.653Z,1.08
2023-04-26T05:51:31.735Z,1.30
2023-04-26T05:52:31.637Z,1.06
2023-04-26T05:53:31.636Z,0.89
2023-04-26T05:54:31.645Z,1.58
2023-04-26T05:55:31.607Z,0.96
2023-04-26T05:56:31.645Z,1.18
2023-04-26T05:57:31.624Z,1.85
2023-04-26T05:58:31.545Z,1.23
2023-04-26T05:59:31.543Z,0.82
2023-04-26T06:00:31.762Z,1.00
2023-04-26T06:01:31.522Z,1.29
2023-04-26T06:02:31.515Z,1.20
2023-04-26T06:03:31.540Z,1.16
2023-04-26T06:04:31.666Z,1.10
2023-04-26T06:05:31.550Z,0.80
2023-04-26T06:06:31.385Z,0.98
2023-04-26T06:07:31.388Z,1.30
2023-04-26T06:08:31.368Z,0.90
2023-04-26T06:09:31.285Z,1.25
2023-04-26T06:10:31.287Z,1.39
2023-04-26T06:11:31.259Z,1.27
2023-04-26T06:12:31.225Z,1.31
2023-04-26T06:13:31.230Z,0.98
2023-04-26T06:14:31.256Z,0.84
2023-04-26T06:15:31.123Z,1.11
2023-04-26T06:16:31.136Z,0.89
2023-04-26T06:17:31.106Z,0.90
2023-04-26T06:18:31.026Z,1.23
2023-04-26T06:19:31.044Z,1.11
2023-04-26T06:20:31.001Z,1.21
2023-04-26T06:21:31.034Z,0.80
2023-04-26T06:22:31.049Z,1.33
2023-04-26T06:23:31.113Z,0.94
2023-04-26T06:24:31.129Z,1.05
2023-04-26T06:25:31.150Z,0.93
2023-04-26T06:26:31.184Z,1.10
2023-04-26T06:27:31.145Z,0.99
2023-04-26T06:28:31.109Z,1.19
2023-04-26T06:29:31.077Z,1.02
2023-04-26T06:30:31.068Z,0.83
2023-04-26T06:31:31.176Z,0.86
2023-04-26T06:32:31.013Z,0.99
2023-04-26T06:33:31.085Z,1.44
2023-04-26T06:34:30.917Z,1.11
2023-04-26T06:35:30.929Z,0.69
2023-04-26T06:36:31.023Z,1.10
2023-04-26T06:37:31.032Z,1.02
2023-04-26T06:38:31.063Z,0.92
2023-04-26T06:39:31.068Z,0.93
2023-04-26T06:40:31.107Z,0.93
2023-04-26T06:41:31.134Z,1.06
2023-04-26T06:42:31.484Z,1.01
2023-04-26T06:43:31.193Z,1.19
2023-04-26T06:44:31.271Z,1.33
2023-04-26T06:45:31.209Z,1.29
2023-04-26T06:46:31.113Z,1.21
2023-04-26T06:47:31.111Z,1.03
2023-04-26T06:48:30.989Z,1.35
2023-04-26T06:49:31.069Z,1.16
2023-04-26T06:50:30.966Z,1.50
2023-04-26T06:51:30.914Z,1.27
2023-04-26T06:52:30.953Z,1.00
2023-04-26T06:53:30.991Z,1.19
2023-04-26T06:54:30.981Z,1.06
2023-04-26T06:55:31.006Z,0.95
2023-04-26T06:56:31.060Z,0.91
2023-04-26T06:57:31.088Z,0.85
2023-04-26T06:58:31.117Z,0.98
2023-04-26T06:59:31.170Z,1.13
2023-04-26T07:00:31.568Z,1.17
2023-04-26T07:01:31.206Z,1.14
2023-04-26T07:02:31.349Z,1.09
2023-04-26T07:03:31.339Z,1.15
2023-04-26T07:04:31.504Z,0.92
2023-04-26T07:05:31.508Z,1.00
2023-04-26T07:06:31.323Z,1.00
2023-04-26T07:07:31.315Z,0.99
2023-04-26T07:08:31.300Z,1.00
2023-04-26T07:09:31.519Z,0.69
2023-04-26T07:10:31.339Z,0.94
2023-04-26T07:11:31.321Z,0.83
2023-04-26T07:12:31.360Z,1.33
2023-04-26T07:13:31.479Z,0.54
2023-04-26T07:14:31.360Z,1.16
2023-04-26T07:15:31.365Z,0.86
2023-04-26T07:16:31.427Z,0.72
2023-04-26T07:17:31.433Z,0.63
2023-04-26T07:18:31.450Z,0.73
2023-04-26T07:19:31.528Z,0.73
2023-04-26T07:20:31.530Z,1.03
2023-04-26T07:21:31.528Z,0.71
2023-04-26T07:22:31.420Z,0.63
2023-04-26T07:23:31.412Z,0.93
2023-04-26T07:24:31.483Z,0.80
2023-04-26T07:25:31.467Z,0.66
2023-04-26T07:26:31.501Z,0.62
2023-04-26T07:27:31.536Z,0.84
2023-04-26T07:28:31.558Z,0.93
2023-04-26T07:29:31.592Z,0.86
2023-04-26T07:30:31.645Z,0.71
2023-04-26T07:31:31.649Z,0.82
2023-04-26T07:32:31.738Z,0.89
2023-04-26T07:33:31.914Z,0.76
2023-04-26T07:34:31.829Z,0.92
2023-04-26T07:35:31.823Z,1.06
2023-04-26T07:36:31.750Z,1.44
2023-04-26T07:37:31.747Z,1.02
2023-04-26T07:38:31.871Z,0.97
2023-04-26T07:39:31.634Z,1.07
2023-04-26T07:40:31.885Z,1.40
2023-04-26T07:41:32.518Z,1.44
2023-04-26T07:42:31.492Z,1.28
2023-04-26T07:43:31.487Z,1.55
2023-04-26T07:44:31.520Z,1.36
2023-04-26T07:45:31.796Z,1.46
2023-04-26T07:46:31.599Z,1.74
2023-04-26T07:47:31.640Z,1.36
2023-04-26T07:48:32.498Z,1.36
2023-04-26T07:49:31.718Z,1.46
2023-04-26T07:50:31.761Z,1.22
2023-04-26T07:51:31.734Z,1.09
2023-04-26T07:52:31.765Z,1.35
2023-04-26T07:53:31.770Z,1.14
2023-04-26T07:54:31.822Z,1.31
2023-04-26T07:55:32.449Z,1.82
2023-04-26T07:56:31.967Z,1.40
2023-04-26T07:57:31.926Z,1.13
2023-04-26T07:58:31.945Z,1.49
2023-04-26T07:59:31.996Z,1.39
2023-04-26T08:00:31.997Z,1.93
2023-04-26T08:01:32.085Z,1.32
2023-04-26T08:02:44.098Z,1.16
2023-04-26T08:03:33.259Z,1.09
2023-04-26T08:04:32.078Z,1.41
2023-04-26T08:05:32.235Z,1.14
2023-04-26T08:06:32.755Z,0.93
2023-04-26T08:07:31.900Z,0.98
2023-04-26T08:08:31.858Z,1.32
2023-04-26T08:09:31.808Z,0.93
2023-04-26T08:10:31.932Z,1.20
2023-04-26T08:11:31.752Z,1.26
2023-04-26T08:12:31.872Z,1.19
2023-04-26T08:13:31.781Z,1.20
2023-04-26T08:14:31.801Z,1.26
2023-04-26T08:15:32.466Z,1.02
2023-04-26T08:16:31.940Z,1.11
2023-04-26T08:17:31.928Z,1.49
2023-04-26T08:18:31.955Z,1.24
2023-04-26T08:19:32.020Z,0.88
2023-04-26T08:20:32.007Z,1.09
2023-04-26T08:21:32.021Z,1.16
2023-04-26T08:22:32.054Z,1.06
2023-04-26T08:23:32.092Z,0.98
2023-04-26T08:24:32.084Z,1.01
2023-04-26T08:25:32.085Z,0.95
2023-04-26T08:26:32.051Z,1.19
2023-04-26T08:27:32.037Z,0.96
2023-04-26T08:28:32.021Z,0.99
2023-04-26T08:29:32.046Z,2.52
2023-04-26T08:30:32.114Z,0.98
2023-04-26T08:31:32.050Z,0.98
2023-04-26T08:32:31.935Z,1.09
2023-04-26T08:33:31.896Z,1.16
2023-04-26T08:34:31.906Z,1.11
2023-04-26T08:35:31.876Z,1.12
2023-04-26T08:36:31.847Z,1.20
2023-04-26T08:37:31.870Z,1.20
2023-04-26T08:38:31.820Z,1.03
2023-04-26T08:39:31.788Z,1.04
2023-04-26T08:40:31.753Z,0.88
2023-04-26T08:41:31.723Z,1.26
2023-04-26T08:42:31.686Z,1.01
2023-04-26T08:43:31.691Z,1.03
2023-04-26T08:44:31.643Z,0.94
2023-04-26T08:45:31.950Z,0.90
2023-04-26T08:46:31.636Z,1.34
2023-04-26T08:47:31.602Z,0.89
2023-04-26T08:48:31.525Z,0.90
2023-04-26T08:49:31.491Z,0.84
2023-04-26T08:50:31.455Z,1.37
2023-04-26T08:51:31.418Z,0.96
2023-04-26T08:52:31.394Z,1.40
2023-04-26T08:53:31.354Z,1.13
2023-04-26T08:54:31.325Z,1.17
2023-04-26T08:55:31.292Z,1.09
2023-04-26T08:56:31.256Z,1.41
2023-04-26T08:57:31.228Z,1.10
2023-04-26T08:58:31.201Z,1.08
2023-04-26T08:59:31.193Z,1.40
2023-04-26T09:00:31.158Z,1.31
2023-04-26T09:01:31.429Z,0.91
2023-04-26T09:02:31.306Z,0.71
2023-04-26T09:03:31.513Z,0.91
2023-04-26T09:04:31.451Z,1.29
2023-04-26T09:05:31.603Z,1.16
2023-04-26T09:06:31.352Z,1.18
2023-04-26T09:07:31.423Z,0.93
2023-04-26T09:08:31.456Z,1.04
2023-04-26T09:09:31.497Z,1.23
2023-04-26T09:10:31.559Z,1.08
2023-04-26T09:11:31.554Z,1.08
2023-04-26T09:12:31.623Z,1.41
2023-04-26T09:13:31.703Z,1.02
2023-04-26T09:14:31.674Z,1.14
2023-04-26T09:15:31.712Z,1.14
2023-04-26T09:16:31.820Z,1.19
2023-04-26T09:17:31.911Z,1.34
2023-04-26T09:18:31.814Z,0.88
2023-04-26T09:19:31.845Z,1.12
2023-04-26T09:20:31.893Z,1.42
2023-04-26T09:21:31.931Z,1.44
2023-04-26T09:22:31.963Z,1.17
2023-04-26T09:23:32.025Z,1.32
2023-04-26T09:24:32.032Z,1.04
2023-04-26T09:25:32.994Z,0.82
2023-04-26T09:26:32.068Z,1.76
2023-04-26T09:27:32.125Z,1.01
2023-04-26T09:28:32.160Z,0.89
2023-04-26T09:29:32.212Z,1.05
2023-04-26T09:30:32.184Z,1.08
2023-04-26T09:31:32.278Z,1.31
2023-04-26T09:32:32.232Z,1.10
2023-04-26T09:33:32.255Z,1.12
2023-04-26T09:34:32.304Z,1.07
2023-04-26T09:35:32.313Z,1.16
2023-04-26T09:36:32.589Z,0.84
2023-04-26T09:37:33.379Z,1.23
2023-04-26T09:38:32.408Z,1.34
2023-04-26T09:39:32.417Z,0.96
2023-04-26T09:40:32.477Z,1.29
2023-04-26T09:41:32.578Z,1.33
2023-04-26T09:42:32.651Z,1.22
2023-04-26T09:43:33.748Z,1.12
2023-04-26T09:44:32.468Z,1.39
2023-04-26T09:45:32.446Z,1.18
2023-04-26T09:46:32.521Z,1.08
2023-04-26T09:47:32.488Z,1.11
2023-04-26T09:48:32.373Z,1.47
2023-04-26T09:49:32.348Z,1.36
2023-04-26T09:50:32.315Z,1.75
2023-04-26T09:51:32.315Z,1.40
2023-04-26T09:52:32.317Z,1.33
2023-04-26T09:53:32.356Z,1.01
2023-04-26T09:54:32.217Z,1.25
2023-04-26T09:55:35.505Z,1.13
2023-04-26T09:56:32.332Z,1.13
2023-04-26T09:57:32.184Z,1.29
2023-04-26T09:58:32.187Z,1.11
2023-04-26T09:59:32.155Z,1.50
2023-04-26T10:00:32.227Z,1.23
2023-04-26T10:01:32.454Z,1.46
2023-04-26T10:02:32.209Z,1.22
2023-04-26T10:03:32.191Z,1.32
2023-04-26T10:04:32.013Z,1.34
2023-04-26T10:05:33.831Z,1.15
2023-04-26T10:06:31.896Z,1.22
2023-04-26T10:07:31.869Z,0.90
2023-04-26T10:08:31.807Z,1.08
2023-04-26T10:09:31.844Z,1.11
2023-04-26T10:10:31.722Z,1.11
2023-04-26T10:11:32.562Z,1.30
2023-04-26T10:12:31.651Z,1.31
2023-04-26T10:13:31.594Z,1.04
2023-04-26T10:14:31.568Z,1.11
2023-04-26T10:15:31.620Z,1.14
2023-04-26T10:16:31.527Z,0.91
2023-04-26T10:17:31.594Z,0.95
2023-04-26T10:18:31.508Z,1.03
2023-04-26T10:19:31.522Z,1.16
2023-04-26T10:20:31.708Z,1.02
2023-04-26T10:21:31.586Z,1.20
2023-04-26T10:22:31.541Z,1.29
2023-04-26T10:23:31.616Z,0.95
2023-04-26T10:24:31.568Z,0.76
2023-04-26T10:25:31.610Z,1.19
2023-04-26T10:26:31.624Z,0.84
2023-04-26T10:27:31.597Z,1.16
2023-04-26T10:28:31.750Z,0.83
2023-04-26T10:29:31.530Z,0.87
2023-04-26T10:30:31.575Z,1.05
2023-04-26T10:31:31.525Z,0.73
2023-04-26T10:32:31.468Z,0.76
2023-04-26T10:33:31.611Z,1.11
2023-04-26T10:34:31.406Z,1.03
2023-04-26T10:35:31.419Z,1.20
2023-04-26T10:36:32.621Z,0.75
2023-04-26T10:37:31.450Z,0.86
2023-04-26T10:38:31.332Z,1.13
2023-04-26T10:39:31.311Z,1.07
2023-04-26T10:40:31.326Z,1.09
2023-04-26T10:41:31.241Z,0.98
2023-04-26T10:42:31.214Z,1.12
2023-04-26T10:43:31.204Z,1.12
2023-04-26T10:44:31.261Z,1.20
2023-04-26T10:45:31.455Z,1.09
2023-04-26T10:46:31.381Z,1.06
2023-04-26T10:47:31.187Z,1.00
2023-04-26T10:48:31.154Z,1.08
2023-04-26T10:49:31.113Z,1.04
2023-04-26T10:50:31.118Z,1.30
2023-04-26T10:51:31.118Z,1.18
2023-04-26T10:52:31.094Z,1.11
2023-04-26T10:53:31.096Z,1.12
2023-04-26T10:54:31.090Z,1.33
2023-04-26T10:55:31.086Z,1.12
2023-04-26T10:56:31.108Z,1.09
2023-04-26T10:57:32.043Z,1.38
2023-04-26T10:58:31.110Z,0.92
2023-04-26T10:59:39.957Z,0.95
2023-04-26T11:00:32.993Z,0.92
2023-04-26T11:01:31.103Z,1.01
2023-04-26T11:02:32.054Z,0.84
2023-04-26T11:03:33.196Z,0.80
2023-04-26T11:04:31.100Z,0.67
2023-04-26T11:05:31.013Z,0.95
2023-04-26T11:06:31.030Z,1.15
2023-04-26T11:07:31.028Z,0.89
2023-04-26T11:08:30.997Z,1.06
2023-04-26T11:09:31.004Z,0.89
2023-04-26T11:10:30.935Z,0.85
2023-04-26T11:11:30.884Z,0.59
2023-04-26T11:12:30.883Z,0.68
2023-04-26T11:13:30.901Z,0.88
2023-04-26T11:14:30.791Z,1.04
2023-04-26T11:15:30.754Z,1.21
2023-04-26T11:16:30.782Z,0.93
2023-04-26T11:17:30.744Z,0.61
2023-04-26T11:18:30.736Z,0.86
2023-04-26T11:19:30.739Z,1.30
2023-04-26T11:20:30.623Z,0.87
2023-04-26T11:21:31.035Z,1.07
2023-04-26T11:22:30.544Z,1.00
2023-04-26T11:23:30.512Z,0.84
2023-04-26T11:24:30.514Z,0.97
2023-04-26T11:25:30.611Z,1.05
2023-04-26T11:26:30.429Z,1.26
2023-04-26T11:27:30.403Z,0.92
2023-04-26T11:28:31.655Z,0.90
2023-04-26T11:29:30.742Z,1.15
2023-04-26T11:30:30.304Z,1.06
2023-04-26T11:31:30.326Z,0.87
2023-04-26T11:32:30.266Z,1.43
2023-04-26T11:33:30.229Z,1.01
2023-04-26T11:34:30.199Z,1.01
2023-04-26T11:35:30.164Z,1.09
2023-04-26T11:36:30.519Z,0.89
2023-04-26T11:37:30.096Z,0.98
2023-04-26T11:38:30.063Z,0.98
2023-04-26T11:39:30.057Z,1.11
2023-04-26T11:40:30.055Z,1.11
2023-04-26T11:41:29.990Z,1.00
2023-04-26T11:42:29.946Z,1.30
2023-04-26T11:43:29.964Z,1.16
2023-04-26T11:44:29.904Z,0.83
2023-04-26T11:45:29.865Z,0.99
2023-04-26T11:46:29.877Z,1.34
2023-04-26T11:47:29.835Z,0.91
2023-04-26T11:48:29.781Z,1.00
2023-04-26T11:49:29.811Z,1.06
2023-04-26T11:50:29.723Z,1.28
2023-04-26T11:51:30.633Z,1.25
2023-04-26T11:52:29.699Z,1.17
2023-04-26T11:53:29.649Z,0.81
2023-04-26T11:54:29.686Z,1.09
2023-04-26T11:55:29.603Z,1.15
2023-04-26T11:56:29.565Z,1.07
2023-04-26T11:57:29.772Z,1.20
2023-04-26T11:58:29.517Z,0.85
2023-04-26T11:59:29.482Z,1.17
2023-04-26T12:00:29.564Z,0.93
2023-04-26T12:01:29.445Z,0.85
2023-04-26T12:02:29.607Z,0.94
2023-04-26T12:03:29.497Z,0.94
2023-04-26T12:04:30.167Z,0.80
2023-04-26T12:05:29.316Z,1.04
2023-04-26T12:06:29.295Z,0.84
2023-04-26T12:07:29.252Z,1.00
2023-04-26T12:08:29.219Z,1.28
2023-04-26T12:09:29.182Z,0.92
2023-04-26T12:10:29.177Z,0.91
2023-04-26T12:11:29.134Z,1.00
2023-04-26T12:12:29.133Z,0.86
2023-04-26T12:13:29.070Z,0.98
2023-04-26T12:14:29.049Z,1.05
2023-04-26T12:15:29.120Z,1.18
2023-04-26T12:16:29.042Z,0.83
2023-04-26T12:17:29.180Z,1.23
2023-04-26T12:18:28.950Z,1.30
2023-04-26T12:19:28.931Z,0.78
2023-04-26T12:20:28.908Z,0.90
2023-04-26T12:21:30.828Z,0.73
2023-04-26T12:22:28.987Z,0.84
2023-04-26T12:23:28.819Z,0.58
2023-04-26T12:24:28.928Z,0.86
2023-04-26T12:25:28.779Z,0.80
2023-04-26T12:26:28.986Z,0.96
2023-04-26T12:27:29.535Z,1.11
2023-04-26T12:28:28.851Z,0.97
2023-04-26T12:29:28.722Z,1.03
2023-04-26T12:30:28.799Z,1.12
2023-04-26T12:31:29.121Z,0.94
2023-04-26T12:32:29.647Z,0.95
2023-04-26T12:33:28.633Z,0.83
2023-04-26T12:34:28.570Z,0.98
2023-04-26T12:35:28.566Z,0.69
2023-04-26T12:36:28.535Z,1.00
2023-04-26T12:37:28.493Z,0.71
2023-04-26T12:38:28.516Z,0.70
2023-04-26T12:39:28.557Z,0.90
2023-04-26T12:40:28.419Z,1.05
2023-04-26T12:41:28.397Z,0.80
2023-04-26T12:42:28.396Z,0.75
2023-04-26T12:43:28.358Z,1.28
2023-04-26T12:44:28.331Z,1.02
2023-04-26T12:45:28.292Z,0.83
2023-04-26T12:46:28.377Z,1.03
2023-04-26T12:47:28.294Z,0.65
2023-04-26T12:48:28.293Z,1.02
2023-04-26T12:49:29.090Z,0.81
2023-04-26T12:50:30.079Z,0.87
2023-04-26T12:51:28.268Z,1.00
2023-04-26T12:52:28.249Z,0.81
2023-04-26T12:53:28.361Z,0.76
2023-04-26T12:54:28.279Z,0.79
2023-04-26T12:55:28.983Z,1.01
2023-04-26T12:56:28.223Z,0.79
2023-04-26T12:57:28.251Z,0.94
2023-04-26T12:58:28.290Z,0.79
2023-04-26T12:59:28.303Z,0.89
2023-04-26T13:00:28.293Z,0.88
2023-04-26T13:01:28.199Z,1.04
2023-04-26T13:02:28.376Z,0.77
2023-04-26T13:03:29.102Z,0.84
2023-04-26T13:04:28.525Z,0.81
2023-04-26T13:05:28.157Z,0.97
2023-04-26T13:06:28.169Z,0.77
2023-04-26T13:07:28.134Z,0.76
2023-04-26T13:08:28.142Z,1.09
2023-04-26T13:09:28.141Z,0.93
2023-04-26T13:10:28.141Z,0.72
2023-04-26T13:11:28.224Z,0.81
2023-04-26T13:12:28.134Z,0.77
2023-04-26T13:13:39.947Z,1.03
2023-04-26T13:14:29.554Z,0.72
2023-04-26T13:15:28.087Z,0.79
2023-04-26T13:16:28.056Z,0.72
2023-04-26T13:17:27.940Z,1.01
2023-04-26T13:18:27.889Z,0.86
2023-04-26T13:19:27.882Z,0.82